Terminal Aerodrome Forecast
Issued by NWS King Salmon, AK

Home | Current Version | Previous Version | Text Only | Print | Product List | Glossary On
Versions: 1 2 3 4 5 6 7 8 9 10 11 12 13 14 15 16 17 18 19 20 21 22 23 24 25 26
844
FTAK31 PAFC 101137
TAFAKN
TAF
PAKN 101137Z 1012/1112 14015G21KT P6SM VCSH FEW050
     FM101700 11011KT P6SM BKN100
     FM111100 05014G23KT P6SM -RA OVC050=

USA.gov is the U.S. government's official web portal to all federal, state and local government web resources and services.